Time;durP1;ratioP1;P1;durP2;ratioP2;P2;SDS_P1;SDS_P2;PMS_P1;PMS_P2;Temp;Humidity;BMP_temperature;BMP_pressure;BME280_temperature;BME280_humidity;BME280_pressure;Samples;Min_cycle;Max_cycle;Signal;HPM_P1;HPM_P2
2022/07/19 00:00:31;;;;;;;4.22;1.70;;;;;;;;;;5053636;28;20025;-83
2022/07/19 00:02:57;;;;;;;3.85;1.75;;;;;;;;;;5051875;28;20108;-83
2022/07/19 00:05:23;;;;;;;5.00;2.05;;;;;;;;;;5053133;28;20458;-83
2022/07/19 00:07:49;;;;;;;4.30;2.00;;;;;;;;;;5046948;28;20151;-84
2022/07/19 00:10:17;;;;;;;4.72;2.15;;;;;;;;;;5055438;28;20028;-84
2022/07/19 00:12:43;;;;;;;4.70;1.75;;;;;;;;;;5069069;28;20100;-84
2022/07/19 00:15:10;;;;;;;4.13;1.80;;;;;;;;;;5039952;28;20029;-83
2022/07/19 00:17:39;;;;;;;4.35;1.80;;;;;;;;;;5065059;28;20025;-85
2022/07/19 00:20:06;;;;;;;5.03;1.80;;;;;;;;;;5053003;28;20040;-84
2022/07/19 00:22:32;;;;;;;4.95;2.20;;;;;;;;;;5035694;28;20471;-84
2022/07/19 00:24:58;;;;;;;4.35;1.80;;;;;;;;;;5052688;28;20029;-84
2022/07/19 00:27:24;;;;;;;7.53;2.30;;;;;;;;;;5035324;28;20041;-84
2022/07/19 00:29:50;;;;;;;4.85;2.00;;;;;;;;;;5052767;28;20399;-84
2022/07/19 00:32:16;;;;;;;5.13;2.25;;;;;;;;;;5052142;28;20048;-84
2022/07/19 00:34:42;;;;;;;4.40;2.10;;;;;;;;;;5051238;28;20028;-84
2022/07/19 00:37:08;;;;;;;4.47;1.80;;;;;;;;;;5051207;28;20017;-84
2022/07/19 00:39:34;;;;;;;4.75;2.00;;;;;;;;;;5035063;28;20115;-84
2022/07/19 00:42:00;;;;;;;4.28;1.80;;;;;;;;;;5052859;28;20029;-84
2022/07/19 00:44:26;;;;;;;3.78;1.60;;;;;;;;;;5052473;28;20028;-85
2022/07/19 00:46:52;;;;;;;4.38;1.83;;;;;;;;;;5034785;28;20056;-85
2022/07/19 00:49:18;;;;;;;4.50;2.05;;;;;;;;;;5066817;28;20067;-84
2022/07/19 00:51:44;;;;;;;4.05;1.83;;;;;;;;;;5034418;28;20025;-84
2022/07/19 00:54:12;;;;;;;4.32;1.90;;;;;;;;;;5034757;28;20006;-84
2022/07/19 00:56:38;;;;;;;4.78;1.70;;;;;;;;;;5052335;28;20032;-84
2022/07/19 00:59:05;;;;;;;5.50;1.83;;;;;;;;;;5051844;28;20032;-84
2022/07/19 01:01:31;;;;;;;4.82;2.03;;;;;;;;;;5051593;28;20039;-84
2022/07/19 01:03:57;;;;;;;4.38;1.90;;;;;;;;;;5034064;28;20020;-84
2022/07/19 01:06:24;;;;;;;5.13;2.10;;;;;;;;;;5033147;28;20031;-84
2022/07/19 01:08:50;;;;;;;5.53;2.13;;;;;;;;;;5034162;28;20075;-84
2022/07/19 01:11:16;;;;;;;3.65;1.83;;;;;;;;;;5034232;28;20437;-84
2022/07/19 01:13:42;;;;;;;4.90;2.05;;;;;;;;;;5034193;28;20036;-84
2022/07/19 01:16:08;;;;;;;5.03;2.00;;;;;;;;;;5051312;28;20017;-84
2022/07/19 01:18:34;;;;;;;4.22;2.20;;;;;;;;;;5051029;28;20104;-83
2022/07/19 01:21:01;;;;;;;5.28;2.00;;;;;;;;;;5033873;28;20157;-84
2022/07/19 01:23:27;;;;;;;5.43;2.08;;;;;;;;;;5050953;28;20082;-84
2022/07/19 01:25:53;;;;;;;4.93;2.33;;;;;;;;;;5047880;28;20433;-85
2022/07/19 01:28:19;;;;;;;4.70;2.00;;;;;;;;;;5029672;28;20052;-84
2022/07/19 01:30:45;;;;;;;4.10;2.00;;;;;;;;;;5030860;28;20018;-85
2022/07/19 01:33:11;;;;;;;7.20;2.47;;;;;;;;;;5029677;28;20026;-84
2022/07/19 01:35:37;;;;;;;4.45;2.10;;;;;;;;;;5037489;28;20057;-85
2022/07/19 01:38:03;;;;;;;5.55;2.25;;;;;;;;;;5048409;28;20103;-84
2022/07/19 01:40:30;;;;;;;4.40;2.50;;;;;;;;;;5050815;28;20066;-84
2022/07/19 01:42:56;;;;;;;5.32;2.40;;;;;;;;;;5041412;28;20032;-84
2022/07/19 01:45:22;;;;;;;4.03;2.13;;;;;;;;;;5035779;28;20017;-84
2022/07/19 01:47:48;;;;;;;5.43;2.20;;;;;;;;;;5028044;28;20022;-84
2022/07/19 01:50:15;;;;;;;5.28;2.17;;;;;;;;;;5029892;28;20439;-84
2022/07/19 01:52:41;;;;;;;4.47;2.08;;;;;;;;;;5032147;28;20026;-85
2022/07/19 01:55:07;;;;;;;4.50;2.17;;;;;;;;;;5019344;28;20062;-84
2022/07/19 01:57:33;;;;;;;4.70;2.10;;;;;;;;;;5030109;28;20024;-84
2022/07/19 02:00:02;;;;;;;5.07;2.30;;;;;;;;;;5021337;28;20026;-84
2022/07/19 02:02:28;;;;;;;8.10;2.85;;;;;;;;;;5011237;28;20026;-84
2022/07/19 02:04:54;;;;;;;4.57;2.55;;;;;;;;;;5017472;28;20030;-84
2022/07/19 02:07:20;;;;;;;5.13;2.50;;;;;;;;;;5029878;28;20448;-84
2022/07/19 02:09:46;;;;;;;5.70;2.30;;;;;;;;;;5031822;28;20029;-84
2022/07/19 02:12:12;;;;;;;5.40;2.50;;;;;;;;;;5030655;28;20021;-84
2022/07/19 02:14:38;;;;;;;8.27;2.47;;;;;;;;;;5032102;28;20029;-84
2022/07/19 02:17:04;;;;;;;5.75;2.17;;;;;;;;;;5024826;28;20399;-84
2022/07/19 02:19:30;;;;;;;4.45;2.38;;;;;;;;;;5035582;28;20025;-83
2022/07/19 02:21:56;;;;;;;5.50;2.20;;;;;;;;;;5033054;28;20044;-85
2022/07/19 02:24:22;;;;;;;5.22;2.38;;;;;;;;;;5033152;28;20487;-84
2022/07/19 02:26:48;;;;;;;4.43;2.42;;;;;;;;;;5036278;28;20046;-86
2022/07/19 02:29:14;;;;;;;6.50;2.20;;;;;;;;;;5033697;28;20570;-85
2022/07/19 02:31:40;;;;;;;4.82;2.38;;;;;;;;;;5034102;28;20026;-84
2022/07/19 02:34:06;;;;;;;4.65;2.30;;;;;;;;;;5049586;28;20029;-84
2022/07/19 02:36:32;;;;;;;4.82;2.33;;;;;;;;;;5036501;28;20029;-84
2022/07/19 02:38:59;;;;;;;4.65;2.28;;;;;;;;;;5034753;28;20029;-84
2022/07/19 02:41:25;;;;;;;3.88;2.08;;;;;;;;;;5029028;28;20025;-84
2022/07/19 02:43:51;;;;;;;4.35;2.10;;;;;;;;;;5046914;28;20034;-84
2022/07/19 02:46:17;;;;;;;6.00;2.33;;;;;;;;;;5026716;28;20530;-84
2022/07/19 02:48:43;;;;;;;7.38;2.30;;;;;;;;;;5028999;28;20038;-85
2022/07/19 02:51:11;;;;;;;4.78;2.40;;;;;;;;;;5035306;28;20026;-83
2022/07/19 02:53:37;;;;;;;5.18;2.40;;;;;;;;;;5039005;28;20029;-83
2022/07/19 02:56:03;;;;;;;4.72;2.10;;;;;;;;;;5030434;28;20029;-83
2022/07/19 02:58:29;;;;;;;6.82;2.50;;;;;;;;;;5034912;28;20030;-83
2022/07/19 03:00:55;;;;;;;4.43;2.30;;;;;;;;;;5034173;28;20029;-83
2022/07/19 03:06:05;;;;;;;4.55;2.22;;;;;;;;;;5033953;28;20087;-83
2022/07/19 03:08:31;;;;;;;6.03;2.33;;;;;;;;;;5034343;28;20060;-83
2022/07/19 03:10:57;;;;;;;4.32;2.10;;;;;;;;;;5035929;28;20048;-84
2022/07/19 03:13:23;;;;;;;6.28;2.55;;;;;;;;;;5031534;28;20033;-84
2022/07/19 03:15:49;;;;;;;5.57;2.53;;;;;;;;;;5030058;28;20080;-83
2022/07/19 03:18:16;;;;;;;4.97;3.05;;;;;;;;;;5035642;28;20087;-84
2022/07/19 03:20:42;;;;;;;5.05;2.50;;;;;;;;;;5033999;28;20549;-83
2022/07/19 03:23:08;;;;;;;5.75;2.50;;;;;;;;;;5033168;28;20084;-83
2022/07/19 03:25:34;;;;;;;5.90;2.72;;;;;;;;;;5028997;28;20021;-84
2022/07/19 03:28:00;;;;;;;4.60;2.60;;;;;;;;;;5037397;28;20106;-84
2022/07/19 03:30:26;;;;;;;5.18;2.63;;;;;;;;;;5053225;28;20029;-84
2022/07/19 03:32:52;;;;;;;4.25;2.05;;;;;;;;;;5053428;28;20021;-84
2022/07/19 03:35:19;;;;;;;6.75;2.58;;;;;;;;;;5035913;28;20547;-83
2022/07/19 03:37:45;;;;;;;5.88;2.90;;;;;;;;;;5053854;28;20084;-83
2022/07/19 03:40:11;;;;;;;4.88;2.53;;;;;;;;;;5054169;28;20062;-83
2022/07/19 03:42:37;;;;;;;6.57;3.17;;;;;;;;;;5046007;28;20032;-83
2022/07/19 03:45:04;;;;;;;4.50;2.45;;;;;;;;;;5054826;28;20112;-83
2022/07/19 03:47:30;;;;;;;5.32;2.80;;;;;;;;;;5034581;28;20470;-83
2022/07/19 03:49:57;;;;;;;4.80;2.67;;;;;;;;;;5035638;28;20032;-83
2022/07/19 03:52:23;;;;;;;6.38;2.72;;;;;;;;;;5035446;28;20063;-83
2022/07/19 03:54:49;;;;;;;5.57;2.30;;;;;;;;;;5051771;28;20396;-83
2022/07/19 03:57:15;;;;;;;5.95;2.42;;;;;;;;;;5036414;28;20112;-83
2022/07/19 03:59:41;;;;;;;4.15;2.72;;;;;;;;;;5073646;28;20050;-84
2022/07/19 04:02:07;;;;;;;5.65;2.63;;;;;;;;;;5045028;28;20029;-83
2022/07/19 04:04:33;;;;;;;5.20;2.55;;;;;;;;;;5016521;28;20029;-84
2022/07/19 04:06:59;;;;;;;4.15;2.33;;;;;;;;;;5035066;28;20548;-84
2022/07/19 04:09:25;;;;;;;4.80;2.58;;;;;;;;;;5044599;28;20026;-83
2022/07/19 04:11:51;;;;;;;5.65;2.67;;;;;;;;;;5049357;28;20029;-84
2022/07/19 04:14:17;;;;;;;5.00;2.72;;;;;;;;;;5028411;28;20024;-84
2022/07/19 04:16:43;;;;;;;5.18;2.58;;;;;;;;;;5035425;28;20386;-84
2022/07/19 04:19:09;;;;;;;6.68;3.00;;;;;;;;;;5033131;28;20029;-83
2022/07/19 04:21:35;;;;;;;5.05;2.90;;;;;;;;;;5034738;28;20030;-84
2022/07/19 04:24:02;;;;;;;5.65;2.97;;;;;;;;;;5053771;28;20074;-84
2022/07/19 04:26:28;;;;;;;8.95;2.65;;;;;;;;;;5046715;28;20135;-83
2022/07/19 04:28:54;;;;;;;10.25;4.07;;;;;;;;;;5053449;28;20087;-84
2022/07/19 04:31:20;;;;;;;7.90;2.85;;;;;;;;;;5036129;28;20498;-83
2022/07/19 04:33:46;;;;;;;9.40;2.72;;;;;;;;;;5031628;28;20121;-83
2022/07/19 04:36:12;;;;;;;6.97;2.72;;;;;;;;;;5030922;28;20024;-83
2022/07/19 04:38:38;;;;;;;5.90;2.60;;;;;;;;;;5035207;28;20017;-83
2022/07/19 04:41:04;;;;;;;5.85;2.35;;;;;;;;;;5040471;28;20504;-83
2022/07/19 04:43:30;;;;;;;4.75;2.08;;;;;;;;;;5045282;28;20021;-83
2022/07/19 04:45:59;;;;;;;5.75;2.40;;;;;;;;;;5053174;28;20033;-83
2022/07/19 04:48:25;;;;;;;5.30;2.20;;;;;;;;;;5034712;28;20025;-83
2022/07/19 04:50:51;;;;;;;6.18;2.50;;;;;;;;;;5052705;28;20029;-84
2022/07/19 04:53:17;;;;;;;6.68;2.90;;;;;;;;;;5035432;28;20367;-83
2022/07/19 04:55:43;;;;;;;4.88;2.45;;;;;;;;;;5047335;28;20028;-83
2022/07/19 04:58:09;;;;;;;5.07;2.33;;;;;;;;;;5052521;28;20024;-84
2022/07/19 05:00:35;;;;;;;4.72;2.60;;;;;;;;;;5032739;28;20056;-84
2022/07/19 05:03:01;;;;;;;5.18;2.53;;;;;;;;;;5034287;28;20077;-84
2022/07/19 05:05:27;;;;;;;5.03;2.72;;;;;;;;;;5038033;28;20612;-84
2022/07/19 05:07:53;;;;;;;6.05;2.90;;;;;;;;;;5052519;28;20029;-84
2022/07/19 05:10:19;;;;;;;5.45;2.80;;;;;;;;;;5033069;28;20029;-84
2022/07/19 05:12:45;;;;;;;5.28;2.53;;;;;;;;;;5036191;28;20029;-84
2022/07/19 05:15:11;;;;;;;6.07;2.65;;;;;;;;;;5044174;28;20028;-84
2022/07/19 05:17:37;;;;;;;5.82;2.38;;;;;;;;;;5051467;28;20482;-84
2022/07/19 05:20:05;;;;;;;7.03;3.28;;;;;;;;;;5034245;28;20039;-84
2022/07/19 05:22:31;;;;;;;6.35;2.97;;;;;;;;;;5032091;28;20542;-84
2022/07/19 05:24:57;;;;;;;6.40;2.53;;;;;;;;;;5058319;28;20033;-84
2022/07/19 05:27:23;;;;;;;5.70;2.50;;;;;;;;;;5065924;28;20456;-84
2022/07/19 05:29:49;;;;;;;5.13;2.55;;;;;;;;;;5048568;28;20036;-83
2022/07/19 05:32:15;;;;;;;6.32;3.60;;;;;;;;;;5042046;28;20032;-83
2022/07/19 05:34:42;;;;;;;7.20;2.65;;;;;;;;;;5028167;28;20411;-84
2022/07/19 05:37:08;;;;;;;8.65;2.63;;;;;;;;;;5047211;28;20067;-83
2022/07/19 05:39:34;;;;;;;6.32;2.63;;;;;;;;;;5036362;28;20025;-83
2022/07/19 05:42:00;;;;;;;5.10;2.40;;;;;;;;;;5054523;28;20048;-83
2022/07/19 05:44:26;;;;;;;4.40;2.25;;;;;;;;;;5037758;28;20029;-83
2022/07/19 05:46:52;;;;;;;7.05;3.10;;;;;;;;;;5034865;28;20514;-83
2022/07/19 05:49:18;;;;;;;4.20;2.40;;;;;;;;;;5061051;28;20100;-84
2022/07/19 05:51:44;;;;;;;6.25;2.55;;;;;;;;;;5061553;28;20069;-83
2022/07/19 05:54:10;;;;;;;4.43;2.20;;;;;;;;;;5053542;28;20025;-83
2022/07/19 05:56:36;;;;;;;5.05;2.47;;;;;;;;;;5036812;28;20033;-84
2022/07/19 05:59:02;;;;;;;5.50;2.80;;;;;;;;;;5075063;28;20028;-84
2022/07/19 06:01:29;;;;;;;6.70;2.60;;;;;;;;;;5059370;28;20024;-83
2022/07/19 06:03:56;;;;;;;4.65;2.28;;;;;;;;;;5060108;28;20123;-84
2022/07/19 06:06:22;;;;;;;6.20;2.90;;;;;;;;;;5061724;28;20028;-82
2022/07/19 06:08:48;;;;;;;5.82;2.40;;;;;;;;;;5063000;28;20039;-83
2022/07/19 06:11:15;;;;;;;4.50;2.10;;;;;;;;;;5061217;28;20448;-83
2022/07/19 06:13:41;;;;;;;5.30;2.50;;;;;;;;;;5045587;28;20029;-83
2022/07/19 06:16:07;;;;;;;5.32;2.50;;;;;;;;;;5060753;28;20036;-83
2022/07/19 06:18:34;;;;;;;5.50;2.65;;;;;;;;;;5038258;28;20033;-84
2022/07/19 06:21:01;;;;;;;5.25;2.20;;;;;;;;;;5042013;28;20060;-83
2022/07/19 06:23:27;;;;;;;6.97;2.53;;;;;;;;;;5054181;28;20044;-83
2022/07/19 06:25:53;;;;;;;4.80;2.40;;;;;;;;;;5056130;28;20231;-84
2022/07/19 06:28:19;;;;;;;4.38;2.35;;;;;;;;;;5052272;28;20052;-84
2022/07/19 06:30:45;;;;;;;7.63;2.72;;;;;;;;;;5043718;28;20047;-83
2022/07/19 06:33:11;;;;;;;8.02;2.60;;;;;;;;;;5055548;28;20025;-83
2022/07/19 06:35:37;;;;;;;4.50;2.60;;;;;;;;;;5054987;28;20506;-83
2022/07/19 06:38:03;;;;;;;4.93;2.58;;;;;;;;;;5057522;28;20021;-84
2022/07/19 06:40:29;;;;;;;6.25;2.80;;;;;;;;;;5074221;28;20025;-84
2022/07/19 06:42:55;;;;;;;5.45;2.63;;;;;;;;;;5040858;28;20025;-83
2022/07/19 06:45:21;;;;;;;5.65;2.67;;;;;;;;;;5030176;28;20033;-82
2022/07/19 06:47:47;;;;;;;6.35;2.78;;;;;;;;;;5042743;28;20075;-84
2022/07/19 06:50:13;;;;;;;7.00;2.40;;;;;;;;;;5041909;28;20074;-84
2022/07/19 06:52:40;;;;;;;6.13;2.60;;;;;;;;;;5044822;28;20028;-83
2022/07/19 06:55:06;;;;;;;7.22;2.63;;;;;;;;;;5069599;28;20044;-82
2022/07/19 06:57:32;;;;;;;7.93;2.70;;;;;;;;;;5060519;28;20033;-81
2022/07/19 06:59:58;;;;;;;5.05;2.22;;;;;;;;;;5053167;28;20028;-84
2022/07/19 07:02:24;;;;;;;5.95;2.55;;;;;;;;;;5043211;28;20033;-84
2022/07/19 07:04:50;;;;;;;8.43;3.70;;;;;;;;;;5049493;28;20047;-83
2022/07/19 07:07:16;;;;;;;8.20;2.58;;;;;;;;;;5053924;28;20028;-83
2022/07/19 07:09:42;;;;;;;5.68;2.70;;;;;;;;;;5056310;28;20079;-83
2022/07/19 07:12:08;;;;;;;5.63;2.70;;;;;;;;;;5032802;28;20124;-85
2022/07/19 07:14:35;;;;;;;7.13;2.83;;;;;;;;;;5034667;28;20013;-85
2022/07/19 07:17:01;;;;;;;5.43;2.58;;;;;;;;;;5053902;28;20028;-85
2022/07/19 07:19:27;;;;;;;5.95;2.63;;;;;;;;;;5035917;28;20032;-85
2022/07/19 07:21:53;;;;;;;6.18;2.70;;;;;;;;;;5053523;28;20112;-86
2022/07/19 07:24:19;;;;;;;7.80;2.50;;;;;;;;;;5052680;28;20060;-84
2022/07/19 07:26:45;;;;;;;5.38;2.55;;;;;;;;;;5034196;28;20500;-85
2022/07/19 07:29:11;;;;;;;5.55;2.42;;;;;;;;;;5027051;28;20120;-86
2022/07/19 07:31:37;;;;;;;5.45;2.40;;;;;;;;;;5035711;28;20094;-86
2022/07/19 07:34:03;;;;;;;4.53;2.38;;;;;;;;;;5046915;28;20534;-86
2022/07/19 07:36:29;;;;;;;7.18;2.88;;;;;;;;;;5016067;28;20018;-86
2022/07/19 07:38:55;;;;;;;6.65;2.60;;;;;;;;;;5015976;28;20475;-86
2022/07/19 07:41:21;;;;;;;5.53;2.53;;;;;;;;;;5025034;28;20021;-84
2022/07/19 07:43:47;;;;;;;8.73;2.58;;;;;;;;;;5052910;28;20375;-83
2022/07/19 07:46:13;;;;;;;6.97;2.78;;;;;;;;;;5038270;28;20067;-85
2022/07/19 07:48:39;;;;;;;6.22;2.50;;;;;;;;;;5056381;28;20071;-84
2022/07/19 07:51:05;;;;;;;6.13;2.47;;;;;;;;;;5031929;28;20028;-83
2022/07/19 07:53:31;;;;;;;5.65;2.88;;;;;;;;;;5039163;28;20021;-84
2022/07/19 07:55:57;;;;;;;6.97;2.80;;;;;;;;;;5055472;28;20474;-84
2022/07/19 07:58:25;;;;;;;5.30;2.90;;;;;;;;;;5047728;28;20023;-83
2022/07/19 08:00:51;;;;;;;9.52;2.83;;;;;;;;;;5035320;28;20021;-84
2022/07/19 08:03:17;;;;;;;6.90;3.42;;;;;;;;;;5049929;28;20021;-84
2022/07/19 08:05:47;;;;;;;5.00;2.70;;;;;;;;;;5036251;28;20075;-84
2022/07/19 08:08:16;;;;;;;5.22;2.70;;;;;;;;;;5033815;28;20478;-85
2022/07/19 08:10:42;;;;;;;5.35;3.00;;;;;;;;;;5033033;28;20029;-84
2022/07/19 08:13:08;;;;;;;7.07;2.75;;;;;;;;;;5029424;28;20151;-84
2022/07/19 08:15:38;;;;;;;5.93;2.55;;;;;;;;;;5042509;28;20399;-85
2022/07/19 08:18:05;;;;;;;8.05;3.00;;;;;;;;;;5034019;28;20025;-84
2022/07/19 08:20:31;;;;;;;5.20;2.90;;;;;;;;;;5034753;28;20383;-84
2022/07/19 08:22:57;;;;;;;7.47;3.08;;;;;;;;;;5034375;28;20090;-85
2022/07/19 08:25:23;;;;;;;5.95;2.65;;;;;;;;;;5050851;28;20498;-85
2022/07/19 08:27:49;;;;;;;5.68;2.40;;;;;;;;;;5051396;28;20037;-85
2022/07/19 08:30:15;;;;;;;4.97;2.60;;;;;;;;;;5034004;28;20037;-86
2022/07/19 08:32:41;;;;;;;9.23;3.72;;;;;;;;;;5049901;28;20017;-84
2022/07/19 08:35:09;;;;;;;8.73;2.75;;;;;;;;;;5050605;28;20021;-84
2022/07/19 08:37:35;;;;;;;6.15;2.92;;;;;;;;;;5033439;28;20048;-85
2022/07/19 08:40:01;;;;;;;5.80;3.05;;;;;;;;;;5034519;28;20048;-84
2022/07/19 08:42:28;;;;;;;7.35;2.60;;;;;;;;;;5052472;28;20029;-85
2022/07/19 08:44:54;;;;;;;6.35;2.55;;;;;;;;;;5060300;28;20034;-86
2022/07/19 08:47:24;;;;;;;5.18;2.22;;;;;;;;;;5072239;28;20550;-86
2022/07/19 08:49:50;;;;;;;5.15;2.50;;;;;;;;;;5054087;28;20393;-85
2022/07/19 08:52:16;;;;;;;7.07;2.50;;;;;;;;;;5054180;28;20020;-84
2022/07/19 08:54:42;;;;;;;6.43;2.50;;;;;;;;;;5052834;28;20020;-83
2022/07/19 08:59:53;;;;;;;4.50;2.08;;;;;;;;;;5052102;28;20291;-84
2022/07/19 09:02:19;;;;;;;5.60;2.08;;;;;;;;;;5051393;28;20519;-84
2022/07/19 09:04:59;;;;;;;5.05;2.15;;;;;;;;;;5037871;28;20032;-84
2022/07/19 09:07:25;;;;;;;5.22;2.00;;;;;;;;;;5052623;28;20070;-84
2022/07/19 09:09:51;;;;;;;7.15;2.33;;;;;;;;;;5052340;28;20036;-84
2022/07/19 09:12:17;;;;;;;3.88;1.70;;;;;;;;;;5034441;28;20025;-84
2022/07/19 09:14:53;;;;;;;7.05;2.22;;;;;;;;;;5034656;28;20028;-84
2022/07/19 09:17:20;;;;;;;5.18;2.00;;;;;;;;;;5052220;28;20021;-84
2022/07/19 09:19:47;;;;;;;4.60;1.90;;;;;;;;;;5054023;28;20033;-84
2022/07/19 09:22:15;;;;;;;4.53;1.98;;;;;;;;;;5040731;28;20074;-84
2022/07/19 09:24:42;;;;;;;5.82;1.90;;;;;;;;;;5020405;28;20056;-83
2022/07/19 09:27:09;;;;;;;4.93;2.08;;;;;;;;;;5019964;28;20418;-83
2022/07/19 09:29:37;;;;;;;5.55;1.77;;;;;;;;;;5032129;28;20413;-84
2022/07/19 09:32:08;;;;;;;4.20;1.92;;;;;;;;;;5032410;28;20052;-86
2022/07/19 09:34:35;;;;;;;3.60;1.50;;;;;;;;;;5031470;28;20026;-84
2022/07/19 09:37:17;;;;;;;4.55;1.98;;;;;;;;;;5032133;28;20100;-85
2022/07/19 09:39:45;;;;;;;;;;;;;;;;;;5022538;28;20022;-85
2022/07/19 09:42:15;;;;;;;5.00;2.05;;;;;;;;;;5012213;28;20283;-85
2022/07/19 09:44:41;;;;;;;3.78;1.73;;;;;;;;;;5030751;28;20031;-85
2022/07/19 09:47:07;;;;;;;5.20;1.75;;;;;;;;;;5034618;28;20036;-84
2022/07/19 09:49:33;;;;;;;4.50;1.67;;;;;;;;;;5031815;28;20034;-85
2022/07/19 09:52:01;;;;;;;5.72;2.53;;;;;;;;;;5030455;28;20087;-85
2022/07/19 09:54:28;;;;;;;5.93;1.77;;;;;;;;;;5029079;28;20479;-84
2022/07/19 09:56:55;;;;;;;6.57;2.00;;;;;;;;;;5036540;28;20057;-84
2022/07/19 09:59:22;;;;;;;6.13;2.20;;;;;;;;;;5019563;28;20026;-86
2022/07/19 10:01:49;;;;;;;4.15;1.65;;;;;;;;;;5025213;28;20533;-84
2022/07/19 10:04:19;;;;;;;4.00;1.95;;;;;;;;;;5026793;28;20032;-84
2022/07/19 10:06:46;;;;;;;4.15;1.60;;;;;;;;;;5022022;28;20021;-84
2022/07/19 10:09:13;;;;;;;4.43;2.08;;;;;;;;;;5024663;28;20045;-85
2022/07/19 10:11:40;;;;;;;4.68;1.85;;;;;;;;;;5032057;28;20025;-84
2022/07/19 10:14:06;;;;;;;4.10;1.70;;;;;;;;;;5029413;28;20037;-86
2022/07/19 10:16:32;;;;;;;4.78;1.90;;;;;;;;;;5030456;28;20030;-84
2022/07/19 10:19:05;;;;;;;5.50;1.80;;;;;;;;;;5031885;28;20029;-85
2022/07/19 10:21:31;;;;;;;5.90;2.10;;;;;;;;;;5024106;28;20037;-84
2022/07/19 10:24:00;;;;;;;4.85;1.80;;;;;;;;;;5031781;28;20029;-84
2022/07/19 10:26:35;;;;;;;4.43;2.00;;;;;;;;;;5015987;28;20033;-84
2022/07/19 10:29:08;;;;;;;6.80;1.90;;;;;;;;;;5037008;28;20402;-84
2022/07/19 10:31:35;;;;;;;4.55;1.73;;;;;;;;;;5043948;28;20090;-84
2022/07/19 10:34:03;;;;;;;4.88;1.75;;;;;;;;;;5033343;28;20024;-84
2022/07/19 10:36:33;;;;;;;4.40;1.60;;;;;;;;;;5034272;28;20014;-84
2022/07/19 10:39:33;;;;;;;3.38;1.50;;;;;;;;;;5052947;28;20033;-84
2022/07/19 10:42:17;;;;;;;4.35;1.75;;;;;;;;;;5039467;28;20556;-84
2022/07/19 10:45:02;;;;;;;3.33;1.42;;;;;;;;;;5037213;28;20398;-84
2022/07/19 10:47:40;;;;;;;3.35;1.55;;;;;;;;;;5037327;28;20036;-84
2022/07/19 10:50:06;;;;;;;5.45;1.77;;;;;;;;;;5035630;28;20072;-84
2022/07/19 10:52:33;;;;;;;3.38;1.50;;;;;;;;;;5032625;28;20020;-85
2022/07/19 10:55:18;;;;;;;4.05;1.55;;;;;;;;;;5036496;28;20388;-84
2022/07/19 10:57:48;;;;;;;5.07;1.85;;;;;;;;;;5018838;28;20025;-84
2022/07/19 11:00:20;;;;;;;5.72;1.60;;;;;;;;;;5019818;28;20034;-85
2022/07/19 11:02:46;;;;;;;;;;;;;;;;;;5031715;28;20495;-85
2022/07/19 11:05:26;;;;;;;5.07;1.73;;;;;;;;;;5040906;28;19967;-84
2022/07/19 11:07:53;;;;;;;5.60;1.90;;;;;;;;;;5053826;28;20027;-84
2022/07/19 11:10:26;;;;;;;6.15;1.60;;;;;;;;;;5054394;28;20221;-84
2022/07/19 11:12:53;;;;;;;4.25;1.70;;;;;;;;;;5036699;28;20026;-84
2022/07/19 11:15:19;;;;;;;4.57;1.98;;;;;;;;;;5017181;28;20120;-84
2022/07/19 11:17:52;;;;;;;3.13;1.50;;;;;;;;;;5033623;28;20090;-84
2022/07/19 11:20:19;;;;;;;4.88;1.55;;;;;;;;;;5036937;28;20029;-84
2022/07/19 11:22:48;;;;;;;3.70;1.60;;;;;;;;;;5031772;28;20049;-84
2022/07/19 11:25:16;;;;;;;4.68;1.70;;;;;;;;;;5053559;28;20029;-84
2022/07/19 11:27:43;;;;;;;4.55;1.85;;;;;;;;;;5031978;28;20402;-83
2022/07/19 11:30:09;;;;;;;4.18;1.55;;;;;;;;;;5035167;28;20475;-84
2022/07/19 11:32:35;;;;;;;4.22;1.70;;;;;;;;;;5030580;28;20039;-85
2022/07/19 11:35:04;;;;;;;4.55;1.70;;;;;;;;;;5055690;28;20094;-85
2022/07/19 11:37:31;;;;;;;5.63;1.77;;;;;;;;;;5042725;28;20502;-84
2022/07/19 11:39:57;;;;;;;4.75;1.85;;;;;;;;;;5054110;28;20039;-84
2022/07/19 11:42:30;;;;;;;3.88;1.83;;;;;;;;;;5045935;28;20024;-84
2022/07/19 11:44:57;;;;;;;4.78;1.85;;;;;;;;;;5052438;28;20124;-83
2022/07/19 11:47:23;;;;;;;4.30;1.80;;;;;;;;;;5045154;28;20029;-84
2022/07/19 11:49:49;;;;;;;4.10;1.75;;;;;;;;;;5033479;28;20076;-85
2022/07/19 11:52:15;;;;;;;4.10;1.52;;;;;;;;;;5032404;28;20102;-83
2022/07/19 11:54:41;;;;;;;6.45;1.85;;;;;;;;;;5049114;28;20491;-84
2022/07/19 11:57:25;;;;;;;7.47;2.10;;;;;;;;;;5039392;28;20520;-84
2022/07/19 11:59:51;;;;;;;4.03;1.60;;;;;;;;;;5035949;28;20088;-84
2022/07/19 12:02:17;;;;;;;3.28;1.58;;;;;;;;;;5033623;28;20021;-85
2022/07/19 12:04:43;;;;;;;4.28;1.70;;;;;;;;;;5030910;28;20029;-84
2022/07/19 12:07:10;;;;;;;5.05;1.88;;;;;;;;;;5036660;28;20021;-84
2022/07/19 12:09:37;;;;;;;5.00;1.83;;;;;;;;;;5051765;28;20082;-84
2022/07/19 12:12:14;;;;;;;4.18;2.10;;;;;;;;;;5035185;28;20078;-84
2022/07/19 12:14:40;;;;;;;3.90;2.00;;;;;;;;;;5051502;28;20100;-86
2022/07/19 12:17:12;;;;;;;4.35;1.98;;;;;;;;;;5032215;28;20084;-85
2022/07/19 12:19:42;;;;;;;4.07;1.50;;;;;;;;;;5035056;28;20115;-84
2022/07/19 12:22:25;;;;;;;5.03;1.98;;;;;;;;;;5053121;28;20433;-86
2022/07/19 12:24:51;;;;;;;5.63;2.20;;;;;;;;;;5034133;28;20490;-83
2022/07/19 12:27:18;;;;;;;5.43;2.55;;;;;;;;;;5041741;28;20118;-85
2022/07/19 12:29:46;;;;;;;5.72;2.13;;;;;;;;;;5057991;28;20056;-83
2022/07/19 12:32:13;;;;;;;6.13;1.88;;;;;;;;;;5040707;28;20027;-84
2022/07/19 12:34:44;;;;;;;5.47;2.10;;;;;;;;;;5035713;28;20051;-85
2022/07/19 12:37:23;;;;;;;4.10;1.77;;;;;;;;;;5071118;28;20033;-84
2022/07/19 12:40:08;;;;;;;5.18;2.17;;;;;;;;;;5038099;28;20040;-83
2022/07/19 12:42:48;;;;;;;5.55;1.95;;;;;;;;;;5018962;28;20034;-84
2022/07/19 12:45:23;;;;;;;6.65;1.92;;;;;;;;;;5019649;28;20032;-84
2022/07/19 12:47:50;;;;;;;5.43;1.95;;;;;;;;;;5051609;28;20028;-84
2022/07/19 12:50:23;;;;;;;4.72;2.00;;;;;;;;;;5051466;28;20029;-84
2022/07/19 12:52:51;;;;;;;5.50;1.80;;;;;;;;;;5037136;28;20029;-84
2022/07/19 12:55:17;;;;;;;5.38;1.98;;;;;;;;;;5035708;28;20029;-84
2022/07/19 12:57:43;;;;;;;6.30;2.03;;;;;;;;;;5048172;28;20025;-85
2022/07/19 13:00:09;;;;;;;5.53;2.03;;;;;;;;;;5033896;28;20029;-84
2022/07/19 13:02:35;;;;;;;4.80;1.85;;;;;;;;;;5041401;28;20024;-85
2022/07/19 13:05:01;;;;;;;4.78;1.80;;;;;;;;;;5051370;28;20040;-85
2022/07/19 13:07:27;;;;;;;4.38;2.05;;;;;;;;;;5050113;28;20040;-84
2022/07/19 13:09:53;;;;;;;5.50;2.28;;;;;;;;;;5035064;28;20033;-84
2022/07/19 13:12:20;;;;;;;4.20;2.10;;;;;;;;;;5053756;28;20036;-83
2022/07/19 13:14:46;;;;;;;4.25;2.10;;;;;;;;;;5053729;28;20029;-84
2022/07/19 13:17:12;;;;;;;4.57;1.65;;;;;;;;;;5053737;28;20017;-84
2022/07/19 13:19:40;;;;;;;4.03;2.00;;;;;;;;;;5069387;28;20041;-83
2022/07/19 13:22:06;;;;;;;4.72;2.22;;;;;;;;;;5053416;28;20029;-84
2022/07/19 13:24:32;;;;;;;4.43;2.30;;;;;;;;;;5052238;28;20035;-84
2022/07/19 13:26:59;;;;;;;4.35;1.92;;;;;;;;;;5056339;28;20457;-84
2022/07/19 13:29:25;;;;;;;5.70;2.33;;;;;;;;;;5047989;28;20036;-83
2022/07/19 13:31:51;;;;;;;4.95;2.00;;;;;;;;;;5050191;28;20025;-84
2022/07/19 13:34:17;;;;;;;4.43;1.95;;;;;;;;;;5034759;28;20065;-84
2022/07/19 13:36:43;;;;;;;5.57;1.90;;;;;;;;;;5037475;28;20453;-84
2022/07/19 13:39:09;;;;;;;4.88;2.20;;;;;;;;;;5051391;28;20593;-84
2022/07/19 13:41:37;;;;;;;4.10;1.70;;;;;;;;;;5055404;28;20036;-83
2022/07/19 13:44:03;;;;;;;4.00;1.90;;;;;;;;;;5061979;28;20527;-84
2022/07/19 13:46:29;;;;;;;6.22;1.90;;;;;;;;;;5051827;28;20021;-84
2022/07/19 13:48:55;;;;;;;5.13;2.47;;;;;;;;;;5044841;28;20120;-84
2022/07/19 13:51:21;;;;;;;4.22;1.65;;;;;;;;;;5050683;28;20013;-84
2022/07/19 13:53:48;;;;;;;5.68;2.05;;;;;;;;;;5056739;28;20036;-85
2022/07/19 13:56:14;;;;;;;4.15;2.03;;;;;;;;;;5048856;28;20738;-84
2022/07/19 13:58:41;;;;;;;5.70;2.22;;;;;;;;;;5037237;28;20489;-84
2022/07/19 14:01:06;;;;;;;4.22;2.25;;;;;;;;;;5031171;28;20029;-84
2022/07/19 14:03:32;;;;;;;4.07;1.67;;;;;;;;;;5030932;28;20024;-86
2022/07/19 14:05:59;;;;;;;3.92;1.85;;;;;;;;;;5051248;28;20505;-83
2022/07/19 14:08:25;;;;;;;5.07;2.30;;;;;;;;;;5048783;28;20028;-85
2022/07/19 14:10:51;;;;;;;4.97;2.03;;;;;;;;;;5046478;28;20035;-83
2022/07/19 14:13:17;;;;;;;7.63;2.10;;;;;;;;;;5032059;28;20025;-84
2022/07/19 14:15:43;;;;;;;4.50;1.98;;;;;;;;;;5049795;28;20013;-83
2022/07/19 14:18:10;;;;;;;5.07;1.95;;;;;;;;;;5033387;28;20554;-83
2022/07/19 14:20:36;;;;;;;5.47;2.20;;;;;;;;;;5038224;28;20037;-84
2022/07/19 14:23:02;;;;;;;5.78;2.10;;;;;;;;;;5028131;28;20025;-83
2022/07/19 14:25:28;;;;;;;4.22;2.17;;;;;;;;;;5033861;28;20024;-85
2022/07/19 14:27:54;;;;;;;6.72;2.50;;;;;;;;;;5035828;28;20418;-84
2022/07/19 14:30:20;;;;;;;6.07;1.80;;;;;;;;;;5044963;28;20032;-83
2022/07/19 14:32:46;;;;;;;6.50;2.30;;;;;;;;;;5052447;28;20032;-84
2022/07/19 14:35:12;;;;;;;5.60;2.28;;;;;;;;;;5052970;28;20017;-83
2022/07/19 14:37:38;;;;;;;6.00;2.03;;;;;;;;;;5026797;28;20086;-83
2022/07/19 14:40:04;;;;;;;6.07;2.15;;;;;;;;;;5039443;28;20033;-84
2022/07/19 14:42:31;;;;;;;5.88;2.30;;;;;;;;;;5037175;28;20033;-84
2022/07/19 14:44:57;;;;;;;4.78;2.20;;;;;;;;;;5056408;28;20028;-84
2022/07/19 14:47:23;;;;;;;6.32;2.17;;;;;;;;;;5054317;28;20052;-83